Time;durP1;ratioP1;P1;durP2;ratioP2;P2;SDS_P1;SDS_P2;PMS_P1;PMS_P2;Temp;Humidity;BMP_temperature;BMP_pressure;BME280_temperature;BME280_humidity;BME280_pressure;Samples;Min_cycle;Max_cycle;Signal;HPM_P1;HPM_P2
2023/09/30 00:01:44;;;;;;;16.70;7.40;;;;;;;;;;5175077;27;20041;-75
2023/09/30 00:04:30;;;;;;;16.08;7.78;;;;;;;;;;5175638;27;20097;-75
2023/09/30 00:07:15;;;;;;;19.60;7.10;;;;;;;;;;5175768;27;20034;-75
2023/09/30 00:10:01;;;;;;;17.42;7.35;;;;;;;;;;5159942;27;20022;-74
2023/09/30 00:12:47;;;;;;;13.88;7.55;;;;;;;;;;5175232;27;20355;-75
2023/09/30 00:15:33;;;;;;;14.52;7.22;;;;;;;;;;5164842;27;20022;-74
2023/09/30 00:18:18;;;;;;;18.27;7.30;;;;;;;;;;5184450;27;20050;-74
2023/09/30 00:21:05;;;;;;;25.60;7.85;;;;;;;;;;5175346;27;20022;-74
2023/09/30 00:23:51;;;;;;;20.88;8.23;;;;;;;;;;5176578;27;20019;-75
2023/09/30 00:26:36;;;;;;;18.33;8.88;;;;;;;;;;5176088;27;20041;-74
2023/09/30 00:29:22;;;;;;;17.40;7.95;;;;;;;;;;5175812;27;20373;-75
2023/09/30 00:32:07;;;;;;;16.67;8.25;;;;;;;;;;5176902;27;20436;-74
2023/09/30 00:34:53;;;;;;;18.95;8.63;;;;;;;;;;5178699;27;20105;-74
2023/09/30 00:37:39;;;;;;;16.38;7.75;;;;;;;;;;5186391;27;20010;-73
2023/09/30 00:40:25;;;;;;;18.70;8.02;;;;;;;;;;5180243;27;20138;-74
2023/09/30 00:43:17;;;;;;;16.80;8.20;;;;;;;;;;5180218;27;20011;-73
2023/09/30 00:46:05;;;;;;;19.83;8.65;;;;;;;;;;5164687;27;20317;-74
2023/09/30 00:48:50;;;;;;;23.77;9.30;;;;;;;;;;5178961;27;20034;-75
2023/09/30 00:51:36;;;;;;;30.30;9.63;;;;;;;;;;5178698;27;20014;-74
2023/09/30 00:54:24;;;;;;;22.98;8.40;;;;;;;;;;5178792;27;20022;-74
2023/09/30 00:57:11;;;;;;;22.60;8.82;;;;;;;;;;5178745;27;20019;-74
2023/09/30 00:59:57;;;;;;;22.10;8.68;;;;;;;;;;5178348;27;20471;-74
2023/09/30 01:02:44;;;;;;;15.55;8.32;;;;;;;;;;5178540;27;20022;-75
2023/09/30 01:05:30;;;;;;;17.75;8.52;;;;;;;;;;5177595;27;20033;-75
2023/09/30 01:08:16;;;;;;;27.13;8.80;;;;;;;;;;5164348;27;20121;-75
2023/09/30 01:11:01;;;;;;;21.77;8.70;;;;;;;;;;5178384;27;20055;-75
2023/09/30 01:13:48;;;;;;;25.95;8.70;;;;;;;;;;5178013;27;20033;-73
2023/09/30 01:16:33;;;;;;;22.00;8.05;;;;;;;;;;5163252;27;20030;-73
2023/09/30 01:19:19;;;;;;;24.38;8.32;;;;;;;;;;5177988;27;20057;-74
2023/09/30 01:22:05;;;;;;;16.75;8.50;;;;;;;;;;5178466;27;20512;-74
2023/09/30 01:24:51;;;;;;;28.35;8.73;;;;;;;;;;5162416;27;20109;-75
2023/09/30 01:27:37;;;;;;;24.20;8.30;;;;;;;;;;5178074;27;20074;-75
2023/09/30 01:30:23;;;;;;;18.30;8.52;;;;;;;;;;5178123;27;20018;-75
2023/09/30 01:33:08;;;;;;;18.00;8.60;;;;;;;;;;5178206;27;20026;-74
2023/09/30 01:35:54;;;;;;;18.88;9.30;;;;;;;;;;5162544;27;20050;-75
2023/09/30 01:38:40;;;;;;;20.45;9.98;;;;;;;;;;5178259;27;20352;-74
2023/09/30 01:41:26;;;;;;;22.08;10.30;;;;;;;;;;5177172;27;20097;-75
2023/09/30 01:44:11;;;;;;;19.92;10.38;;;;;;;;;;5176311;27;20018;-75
2023/09/30 01:46:58;;;;;;;22.52;11.63;;;;;;;;;;5178561;27;20101;-74
2023/09/30 01:49:44;;;;;;;19.15;11.68;;;;;;;;;;5177446;27;20376;-74
2023/09/30 01:52:30;;;;;;;20.67;11.38;;;;;;;;;;5178253;27;20071;-75
2023/09/30 01:55:15;;;;;;;22.83;10.95;;;;;;;;;;5178309;27;20034;-75
2023/09/30 01:58:01;;;;;;;16.67;10.75;;;;;;;;;;5163119;27;20031;-75
2023/09/30 02:00:47;;;;;;;18.73;8.80;;;;;;;;;;5177850;27;20019;-74
2023/09/30 02:03:32;;;;;;;20.33;8.70;;;;;;;;;;5162889;27;20051;-75
2023/09/30 02:06:18;;;;;;;17.00;8.30;;;;;;;;;;5177006;27;20133;-73
2023/09/30 02:09:04;;;;;;;13.95;7.53;;;;;;;;;;5177029;27;20026;-75
2023/09/30 02:11:50;;;;;;;13.10;7.40;;;;;;;;;;5177836;27;20015;-73
2023/09/30 02:14:38;;;;;;;16.23;7.70;;;;;;;;;;5176083;27;20113;-74
2023/09/30 02:17:24;;;;;;;15.35;7.20;;;;;;;;;;5176978;27;20026;-75
2023/09/30 02:20:15;;;;;;;18.17;7.63;;;;;;;;;;5177689;27;20105;-75
2023/09/30 02:23:02;;;;;;;17.90;7.07;;;;;;;;;;5163115;27;20018;-74
2023/09/30 02:25:47;;;;;;;15.07;7.40;;;;;;;;;;5177349;27;20128;-74
2023/09/30 02:28:34;;;;;;;13.55;6.60;;;;;;;;;;5161506;27;20041;-74
2023/09/30 02:31:19;;;;;;;9.02;6.45;;;;;;;;;;5176968;27;20019;-74
2023/09/30 02:34:05;;;;;;;16.10;7.05;;;;;;;;;;5176179;27;20022;-75
2023/09/30 02:36:51;;;;;;;15.63;6.57;;;;;;;;;;5162265;27;20101;-73
2023/09/30 02:39:37;;;;;;;14.75;7.82;;;;;;;;;;5177050;27;20026;-73
2023/09/30 02:42:23;;;;;;;15.20;6.88;;;;;;;;;;5176510;27;20447;-73
2023/09/30 02:45:10;;;;;;;17.40;7.20;;;;;;;;;;5176580;27;20355;-74
2023/09/30 02:47:55;;;;;;;14.43;6.68;;;;;;;;;;5161218;27;20022;-74
2023/09/30 02:50:44;;;;;;;17.23;6.70;;;;;;;;;;5160395;27;20066;-75
2023/09/30 02:53:30;;;;;;;13.38;6.75;;;;;;;;;;5176912;27;20029;-74
2023/09/30 02:56:16;;;;;;;15.85;6.85;;;;;;;;;;5175619;27;20014;-75
2023/09/30 02:59:01;;;;;;;17.05;6.78;;;;;;;;;;5176629;27;20022;-75
2023/09/30 03:01:47;;;;;;;15.63;7.15;;;;;;;;;;5160958;27;20073;-75
2023/09/30 03:04:33;;;;;;;16.73;7.13;;;;;;;;;;5177253;27;20041;-74
2023/09/30 03:07:20;;;;;;;10.00;6.90;;;;;;;;;;5176541;27;20033;-75
2023/09/30 03:10:08;;;;;;;18.17;7.03;;;;;;;;;;5175999;27;20491;-74
2023/09/30 03:12:54;;;;;;;14.90;7.45;;;;;;;;;;5175421;27;20018;-74
2023/09/30 03:15:40;;;;;;;14.80;7.63;;;;;;;;;;5176392;27;20034;-74
2023/09/30 03:18:26;;;;;;;15.05;6.85;;;;;;;;;;5176529;27;20359;-73
2023/09/30 03:21:15;;;;;;;16.20;7.50;;;;;;;;;;5176122;27;20370;-74
2023/09/30 03:24:04;;;;;;;15.27;7.70;;;;;;;;;;5182389;27;20112;-73
2023/09/30 03:26:50;;;;;;;11.57;7.70;;;;;;;;;;5161689;27;20015;-74
2023/09/30 03:29:38;;;;;;;14.80;7.53;;;;;;;;;;5177041;27;20113;-75
2023/09/30 03:32:24;;;;;;;18.75;8.25;;;;;;;;;;5176923;27;20018;-74
2023/09/30 03:35:10;;;;;;;13.13;7.65;;;;;;;;;;5176593;27;20018;-74
2023/09/30 03:37:56;;;;;;;15.02;7.68;;;;;;;;;;5175375;27;20014;-75
2023/09/30 03:40:47;;;;;;;22.35;8.10;;;;;;;;;;5160040;27;20456;-75
2023/09/30 03:43:34;;;;;;;13.65;7.88;;;;;;;;;;5175059;27;20336;-74
2023/09/30 03:46:20;;;;;;;19.15;8.52;;;;;;;;;;5160484;27;20151;-73
2023/09/30 03:49:08;;;;;;;15.63;7.88;;;;;;;;;;5175351;27;20047;-74
2023/09/30 03:51:53;;;;;;;18.15;8.02;;;;;;;;;;5160063;27;20046;-74
2023/09/30 03:54:41;;;;;;;17.65;8.40;;;;;;;;;;5176033;27;20010;-74
2023/09/30 03:57:27;;;;;;;18.02;8.50;;;;;;;;;;5163036;27;20015;-74
2023/09/30 04:00:15;;;;;;;15.13;8.20;;;;;;;;;;5184030;27;20370;-74
2023/09/30 04:03:02;;;;;;;19.42;9.57;;;;;;;;;;5164668;27;20117;-75
2023/09/30 04:05:50;;;;;;;21.08;9.07;;;;;;;;;;5176288;27;20109;-75
2023/09/30 04:08:36;;;;;;;20.77;9.05;;;;;;;;;;5178448;27;20032;-75
2023/09/30 04:11:22;;;;;;;14.55;9.63;;;;;;;;;;5178631;27;20058;-75
2023/09/30 04:14:07;;;;;;;17.58;8.98;;;;;;;;;;5179324;27;20101;-74
2023/09/30 04:16:54;;;;;;;20.38;9.43;;;;;;;;;;5180071;27;20029;-75
2023/09/30 04:19:39;;;;;;;16.80;9.38;;;;;;;;;;5179908;27;20067;-75
2023/09/30 04:22:25;;;;;;;16.48;9.57;;;;;;;;;;5163121;27;20093;-75
2023/09/30 04:25:12;;;;;;;18.17;10.07;;;;;;;;;;5164808;27;20436;-74
2023/09/30 04:27:58;;;;;;;25.08;10.52;;;;;;;;;;5178773;27;20363;-75
2023/09/30 04:30:43;;;;;;;18.92;11.02;;;;;;;;;;5178517;27;20474;-74
2023/09/30 04:33:29;;;;;;;20.23;11.50;;;;;;;;;;5179635;27;20018;-74
2023/09/30 04:36:14;;;;;;;24.60;11.48;;;;;;;;;;5164962;27;20101;-75
2023/09/30 04:39:00;;;;;;;20.73;11.13;;;;;;;;;;5178662;27;20046;-75
2023/09/30 04:41:46;;;;;;;23.83;12.52;;;;;;;;;;5179690;27;20037;-74
2023/09/30 04:44:32;;;;;;;21.30;12.10;;;;;;;;;;5180133;27;20018;-74
2023/09/30 04:47:21;;;;;;;20.27;11.70;;;;;;;;;;5179851;27;20337;-75
2023/09/30 04:50:07;;;;;;;23.15;11.60;;;;;;;;;;5178796;27;20050;-75
2023/09/30 04:52:53;;;;;;;27.80;12.07;;;;;;;;;;5179024;27;20032;-75
2023/09/30 04:55:39;;;;;;;26.45;12.70;;;;;;;;;;5178873;27;20018;-75
2023/09/30 04:58:24;;;;;;;19.55;11.65;;;;;;;;;;5179944;27;20121;-75
2023/09/30 05:01:10;;;;;;;23.05;11.85;;;;;;;;;;5178887;27;20462;-75
2023/09/30 05:03:55;;;;;;;38.38;12.77;;;;;;;;;;5178670;27;20071;-75
2023/09/30 05:06:41;;;;;;;22.15;12.02;;;;;;;;;;5179958;27;20018;-75
2023/09/30 05:09:28;;;;;;;22.05;12.07;;;;;;;;;;5179388;27;20458;-74
2023/09/30 05:12:13;;;;;;;27.92;12.00;;;;;;;;;;5178599;27;20071;-74
2023/09/30 05:14:59;;;;;;;23.92;12.68;;;;;;;;;;5163171;27;20447;-75
2023/09/30 05:17:45;;;;;;;22.80;12.80;;;;;;;;;;5178981;27;20340;-75
2023/09/30 05:20:31;;;;;;;21.80;12.40;;;;;;;;;;5180021;27;20018;-74
2023/09/30 05:23:18;;;;;;;23.65;13.88;;;;;;;;;;5179381;27;20075;-74
2023/09/30 05:26:04;;;;;;;24.00;13.13;;;;;;;;;;5178523;27;20026;-74
2023/09/30 05:28:49;;;;;;;21.27;12.27;;;;;;;;;;5179144;27;20014;-73
2023/09/30 05:31:35;;;;;;;20.58;12.25;;;;;;;;;;5179702;27;20018;-75
2023/09/30 05:34:21;;;;;;;17.60;11.60;;;;;;;;;;5178820;27;20018;-73
2023/09/30 05:37:06;;;;;;;18.55;11.77;;;;;;;;;;5178671;27;20010;-75
2023/09/30 05:39:52;;;;;;;24.20;12.35;;;;;;;;;;5179415;27;20018;-74
2023/09/30 05:42:38;;;;;;;23.20;12.00;;;;;;;;;;5178189;27;20105;-73
2023/09/30 05:45:24;;;;;;;18.65;11.45;;;;;;;;;;5178972;27;20019;-74
2023/09/30 05:48:10;;;;;;;22.83;11.88;;;;;;;;;;5178626;27;20057;-74
2023/09/30 05:50:56;;;;;;;26.92;12.23;;;;;;;;;;5163333;27;20086;-74
2023/09/30 05:53:41;;;;;;;20.08;12.07;;;;;;;;;;5178010;27;20018;-74
2023/09/30 05:56:27;;;;;;;23.33;12.07;;;;;;;;;;5177131;27;20067;-74
2023/09/30 05:59:13;;;;;;;23.80;12.13;;;;;;;;;;5179337;27;20034;-74
2023/09/30 06:01:59;;;;;;;20.55;12.27;;;;;;;;;;5177970;27;20019;-74
2023/09/30 06:04:46;;;;;;;22.50;11.70;;;;;;;;;;5178742;27;20019;-74
2023/09/30 06:07:33;;;;;;;21.70;11.60;;;;;;;;;;5163025;27;20022;-74
2023/09/30 06:10:19;;;;;;;27.95;12.07;;;;;;;;;;5162253;27;20033;-74
2023/09/30 06:13:05;;;;;;;23.40;11.30;;;;;;;;;;5177181;27;20018;-74
2023/09/30 06:15:51;;;;;;;20.67;10.98;;;;;;;;;;5177444;27;20400;-74
2023/09/30 06:18:36;;;;;;;23.38;10.45;;;;;;;;;;5162630;27;20101;-75
2023/09/30 06:21:24;;;;;;;25.50;11.38;;;;;;;;;;5176712;27;20415;-73
2023/09/30 06:24:10;;;;;;;28.00;12.68;;;;;;;;;;5177676;27;20034;-75
2023/09/30 06:26:55;;;;;;;18.52;11.30;;;;;;;;;;5177409;27;20404;-74
2023/09/30 06:29:42;;;;;;;27.05;12.45;;;;;;;;;;5175830;27;20018;-74
2023/09/30 06:32:28;;;;;;;23.80;11.63;;;;;;;;;;5178236;27;20071;-74
2023/09/30 06:35:13;;;;;;;22.23;11.77;;;;;;;;;;5177287;27;20135;-74
2023/09/30 06:37:59;;;;;;;19.35;11.30;;;;;;;;;;5177083;27;20105;-74
2023/09/30 06:40:47;;;;;;;26.73;11.98;;;;;;;;;;5176347;27;20061;-74
2023/09/30 06:43:33;;;;;;;24.02;11.70;;;;;;;;;;5177236;27;20032;-74
2023/09/30 06:46:18;;;;;;;22.58;11.23;;;;;;;;;;5177787;27;20026;-73
2023/09/30 06:49:04;;;;;;;28.00;13.32;;;;;;;;;;5176963;27;20114;-74
2023/09/30 06:51:49;;;;;;;27.63;11.75;;;;;;;;;;5177026;27;20351;-74
2023/09/30 06:54:35;;;;;;;28.90;11.45;;;;;;;;;;5176693;27;20022;-74
2023/09/30 06:57:20;;;;;;;27.27;11.48;;;;;;;;;;5177174;27;20010;-74
2023/09/30 07:00:09;;;;;;;36.35;11.35;;;;;;;;;;5176045;27;20018;-75
2023/09/30 07:02:55;;;;;;;27.88;13.38;;;;;;;;;;5176404;27;20022;-76
2023/09/30 07:05:41;;;;;;;21.15;10.82;;;;;;;;;;5176498;27;20105;-74
2023/09/30 07:08:29;;;;;;;26.17;11.27;;;;;;;;;;5176565;27;20026;-75
2023/09/30 07:11:15;;;;;;;20.42;10.63;;;;;;;;;;5175736;27;20052;-75
2023/09/30 07:14:01;;;;;;;26.98;11.25;;;;;;;;;;5176418;27;20014;-75
2023/09/30 07:16:46;;;;;;;19.17;9.93;;;;;;;;;;5176058;27;20053;-73
2023/09/30 07:19:32;;;;;;;20.25;9.98;;;;;;;;;;5160148;27;20018;-76
2023/09/30 07:22:18;;;;;;;25.55;10.57;;;;;;;;;;5177186;27;20025;-75
2023/09/30 07:25:04;;;;;;;21.15;10.65;;;;;;;;;;5161861;27;20010;-75
2023/09/30 07:27:50;;;;;;;47.30;13.95;;;;;;;;;;5178713;27;20366;-76
2023/09/30 07:30:42;;;;;;;27.63;11.55;;;;;;;;;;5176919;27;20479;-74
2023/09/30 07:33:31;;;;;;;32.17;11.63;;;;;;;;;;5176957;27;20018;-74
2023/09/30 07:36:17;;;;;;;18.92;10.57;;;;;;;;;;5177531;27;20505;-74
2023/09/30 07:39:03;;;;;;;16.33;10.50;;;;;;;;;;5177084;27;20022;-74
2023/09/30 07:41:49;;;;;;;18.88;10.18;;;;;;;;;;5178629;27;20015;-75
2023/09/30 07:44:37;;;;;;;23.98;10.18;;;;;;;;;;5181225;27;20046;-74
2023/09/30 07:47:23;;;;;;;27.52;11.40;;;;;;;;;;5167151;27;20121;-74
2023/09/30 07:50:09;;;;;;;18.67;9.77;;;;;;;;;;5165209;27;20406;-75
2023/09/30 07:52:55;;;;;;;19.85;10.70;;;;;;;;;;5180447;27;20086;-75
2023/09/30 07:55:40;;;;;;;20.63;9.63;;;;;;;;;;5181008;27;20102;-75
2023/09/30 07:58:31;;;;;;;29.80;10.30;;;;;;;;;;5181183;27;20220;-74
2023/09/30 08:01:17;;;;;;;19.25;9.85;;;;;;;;;;5164764;27;20113;-75
2023/09/30 08:04:03;;;;;;;19.88;9.35;;;;;;;;;;5180027;27;20493;-75
2023/09/30 08:06:50;;;;;;;15.15;9.57;;;;;;;;;;5180056;27;20081;-75
2023/09/30 08:09:37;;;;;;;16.65;10.10;;;;;;;;;;5178839;27;20410;-75
2023/09/30 08:12:23;;;;;;;22.75;9.98;;;;;;;;;;5179362;27;20436;-75
2023/09/30 08:15:11;;;;;;;27.45;10.98;;;;;;;;;;5180123;27;20026;-76
2023/09/30 08:17:57;;;;;;;19.58;9.43;;;;;;;;;;5179841;27;20428;-74
2023/09/30 08:20:43;;;;;;;18.58;9.30;;;;;;;;;;5179049;27;20034;-75
2023/09/30 08:23:29;;;;;;;16.50;9.32;;;;;;;;;;5150440;27;20030;-75
2023/09/30 08:26:15;;;;;;;18.98;8.85;;;;;;;;;;5179986;27;20481;-75
2023/09/30 08:29:01;;;;;;;18.08;8.30;;;;;;;;;;5179143;27;20079;-75
2023/09/30 08:31:46;;;;;;;18.08;10.13;;;;;;;;;;5179275;27;20443;-75
2023/09/30 08:34:33;;;;;;;20.63;8.48;;;;;;;;;;5178931;27;20015;-75
2023/09/30 08:37:31;;;;;;;16.67;8.40;;;;;;;;;;5179531;27;20011;-75
2023/09/30 08:40:21;;;;;;;18.67;8.55;;;;;;;;;;5178612;27;20058;-74
2023/09/30 08:43:11;;;;;;;19.50;8.77;;;;;;;;;;5180207;27;20025;-74
2023/09/30 08:45:57;;;;;;;14.95;7.65;;;;;;;;;;5179307;27;20435;-75
2023/09/30 08:48:43;;;;;;;18.08;8.80;;;;;;;;;;5179471;27;20456;-75
2023/09/30 08:51:29;;;;;;;18.98;7.70;;;;;;;;;;5179159;27;20022;-75
2023/09/30 08:54:15;;;;;;;20.88;8.73;;;;;;;;;;5178585;27;20025;-75
2023/09/30 08:57:04;;;;;;;15.85;7.50;;;;;;;;;;5179544;27;20027;-73
2023/09/30 08:59:50;;;;;;;12.20;6.85;;;;;;;;;;5163758;27;20030;-74
2023/09/30 09:02:35;;;;;;;13.13;7.68;;;;;;;;;;5164006;27;20050;-74
2023/09/30 09:05:21;;;;;;;20.08;7.63;;;;;;;;;;5179580;27;20025;-75
2023/09/30 09:08:08;;;;;;;11.52;7.03;;;;;;;;;;5178193;27;20018;-74
2023/09/30 09:11:02;;;;;;;12.43;7.40;;;;;;;;;;5181937;27;20442;-75
2023/09/30 09:13:49;;;;;;;20.98;7.65;;;;;;;;;;5160822;27;20101;-75
2023/09/30 09:16:56;;;;;;;16.40;8.55;;;;;;;;;;5179148;27;20061;-74
2023/09/30 09:19:42;;;;;;;20.65;8.02;;;;;;;;;;5161082;27;20038;-74
2023/09/30 09:22:37;;;;;;;16.63;8.25;;;;;;;;;;5179329;27;20440;-74
2023/09/30 09:25:23;;;;;;;14.45;8.45;;;;;;;;;;5179036;27;20030;-74
2023/09/30 09:28:09;;;;;;;10.43;7.55;;;;;;;;;;5163287;27;20033;-74
2023/09/30 09:30:54;;;;;;;20.30;8.18;;;;;;;;;;5177579;27;20068;-74
2023/09/30 09:33:40;;;;;;;16.45;8.60;;;;;;;;;;5178196;27;20062;-74
2023/09/30 09:36:44;;;;;;;16.63;7.70;;;;;;;;;;5179946;27;20033;-75
2023/09/30 09:39:34;;;;;;;14.20;8.38;;;;;;;;;;5178867;27;20452;-75
2023/09/30 09:42:29;;;;;;;13.02;8.57;;;;;;;;;;5163608;27;20052;-74
2023/09/30 09:45:15;;;;;;;17.40;8.40;;;;;;;;;;5178639;27;20466;-73
2023/09/30 09:48:01;;;;;;;13.60;7.90;;;;;;;;;;5177045;27;20026;-73
2023/09/30 09:50:47;;;;;;;16.30;8.32;;;;;;;;;;5176743;27;20490;-74
2023/09/30 09:53:38;;;;;;;14.35;8.70;;;;;;;;;;5176707;27;20034;-74
2023/09/30 09:56:24;;;;;;;20.33;8.38;;;;;;;;;;5177057;27;20014;-74
2023/09/30 09:59:11;;;;;;;14.50;8.65;;;;;;;;;;5177290;27;20018;-73
2023/09/30 10:01:58;;;;;;;17.10;8.48;;;;;;;;;;5177466;27;20083;-74
2023/09/30 10:04:45;;;;;;;20.15;8.90;;;;;;;;;;5175843;27;20050;-72
2023/09/30 10:07:34;;;;;;;14.68;8.43;;;;;;;;;;5162426;27;20014;-74
2023/09/30 10:10:21;;;;;;;16.08;8.30;;;;;;;;;;5176480;27;20082;-74
2023/09/30 10:13:06;;;;;;;15.32;8.20;;;;;;;;;;5177654;27;20016;-74
2023/09/30 10:15:52;;;;;;;15.55;8.30;;;;;;;;;;5177041;27;20014;-73
2023/09/30 10:18:57;;;;;;;18.88;8.48;;;;;;;;;;5178337;27;20462;-75
2023/09/30 10:22:02;;;;;;;16.77;9.38;;;;;;;;;;5177082;27;20093;-74
2023/09/30 10:24:49;;;;;;;16.48;8.85;;;;;;;;;;5176687;27;20443;-73
2023/09/30 10:27:36;;;;;;;12.95;8.18;;;;;;;;;;5176847;27;20026;-74
2023/09/30 10:30:22;;;;;;;18.83;8.60;;;;;;;;;;5176870;27;20026;-75
2023/09/30 10:33:09;;;;;;;39.10;10.50;;;;;;;;;;5177619;27;20539;-73
2023/09/30 10:35:55;;;;;;;21.60;8.73;;;;;;;;;;5172592;27;20428;-74
2023/09/30 10:38:40;;;;;;;12.60;7.80;;;;;;;;;;5171948;27;20067;-74
2023/09/30 10:41:38;;;;;;;18.27;8.00;;;;;;;;;;5176835;27;20018;-72
2023/09/30 10:44:27;;;;;;;14.23;7.90;;;;;;;;;;5176568;27;20022;-72
2023/09/30 10:47:22;;;;;;;13.48;7.90;;;;;;;;;;5176473;27;20046;-74
2023/09/30 10:50:27;;;;;;;17.10;8.10;;;;;;;;;;5175412;27;20042;-73
2023/09/30 10:53:13;;;;;;;14.10;8.38;;;;;;;;;;5160354;27;20333;-72
2023/09/30 10:56:00;;;;;;;15.23;8.20;;;;;;;;;;5177828;27;20071;-72
2023/09/30 10:58:52;;;;;;;14.40;7.22;;;;;;;;;;5168788;27;20021;-72
2023/09/30 11:01:38;;;;;;;11.70;7.57;;;;;;;;;;5153783;27;20028;-72
2023/09/30 11:04:24;;;;;;;10.25;7.40;;;;;;;;;;5175724;27;20022;-72
2023/09/30 11:07:09;;;;;;;14.18;7.38;;;;;;;;;;5175293;27;20027;-72
2023/09/30 11:09:55;;;;;;;20.92;8.02;;;;;;;;;;5156456;27;20026;-72
2023/09/30 11:12:53;;;;;;;10.32;7.00;;;;;;;;;;5154895;27;20030;-71
2023/09/30 11:15:38;;;;;;;10.77;6.50;;;;;;;;;;5139186;27;20448;-72
2023/09/30 11:18:24;;;;;;;11.25;6.15;;;;;;;;;;5155896;27;20033;-72
2023/09/30 11:21:12;;;;;;;10.90;6.40;;;;;;;;;;5174929;27;20021;-72
2023/09/30 11:23:58;;;;;;;14.95;6.10;;;;;;;;;;5176068;27;20018;-72
2023/09/30 11:26:44;;;;;;;14.88;6.53;;;;;;;;;;5175228;27;20093;-72
2023/09/30 11:29:30;;;;;;;9.50;5.85;;;;;;;;;;5176060;27;20093;-72
2023/09/30 11:32:26;;;;;;;9.93;5.60;;;;;;;;;;5176448;27;20046;-72
2023/09/30 11:35:22;;;;;;;16.30;5.50;;;;;;;;;;5161256;27;20118;-72
2023/09/30 11:38:08;;;;;;;11.80;6.03;;;;;;;;;;5174700;27;20444;-71
2023/09/30 11:41:02;;;;;;;15.60;5.40;;;;;;;;;;5175978;27;20110;-72
2023/09/30 11:44:04;;;;;;;12.73;5.30;;;;;;;;;;5174297;27;20053;-71
2023/09/30 11:46:55;;;;;;;8.13;5.63;;;;;;;;;;5175571;27;20109;-72
2023/09/30 11:49:44;;;;;;;7.68;5.32;;;;;;;;;;5175227;27;20080;-72
2023/09/30 11:52:29;;;;;;;10.90;5.25;;;;;;;;;;5175162;27;20340;-72
2023/09/30 11:55:16;;;;;;;8.68;5.45;;;;;;;;;;5176117;27;20029;-72
2023/09/30 11:58:02;;;;;;;13.43;6.07;;;;;;;;;;5174816;27;20207;-73
2023/09/30 12:00:50;;;;;;;9.05;5.43;;;;;;;;;;5176523;27;20045;-73
2023/09/30 12:03:39;;;;;;;8.32;5.75;;;;;;;;;;5160893;27;20033;-72
2023/09/30 12:06:25;;;;;;;11.82;5.65;;;;;;;;;;5167187;27;20023;-71
2023/09/30 12:09:14;;;;;;;10.15;5.78;;;;;;;;;;5157551;27;20086;-73
2023/09/30 12:12:00;;;;;;;8.18;5.15;;;;;;;;;;5155887;27;20083;-73
2023/09/30 12:14:45;;;;;;;14.70;5.97;;;;;;;;;;5154747;27;20019;-73
2023/09/30 12:17:31;;;;;;;11.88;5.35;;;;;;;;;;5155358;27;20019;-71
2023/09/30 12:20:17;;;;;;;14.07;5.90;;;;;;;;;;5154654;27;20065;-72
2023/09/30 12:23:05;;;;;;;12.30;5.63;;;;;;;;;;5154919;27;20030;-72
2023/09/30 12:25:50;;;;;;;14.75;5.78;;;;;;;;;;5154042;27;20030;-72
2023/09/30 12:28:36;;;;;;;14.48;5.57;;;;;;;;;;5155725;27;20018;-72
2023/09/30 12:31:22;;;;;;;11.30;5.43;;;;;;;;;;5158219;27;20356;-72
2023/09/30 12:34:08;;;;;;;8.25;5.47;;;;;;;;;;5159522;27;20074;-73
2023/09/30 12:36:55;;;;;;;16.05;5.38;;;;;;;;;;5158223;27;20026;-73
2023/09/30 12:39:41;;;;;;;14.10;5.30;;;;;;;;;;5157718;27;20162;-72
2023/09/30 12:42:28;;;;;;;9.40;4.90;;;;;;;;;;5158393;27;20463;-74
2023/09/30 12:45:13;;;;;;;13.48;5.53;;;;;;;;;;5158220;27;20416;-73
2023/09/30 12:47:59;;;;;;;12.55;5.53;;;;;;;;;;5157825;27;20352;-72
2023/09/30 12:50:44;;;;;;;15.63;5.22;;;;;;;;;;5156912;27;20054;-73
2023/09/30 12:53:32;;;;;;;9.05;5.47;;;;;;;;;;5157602;27;20019;-72
2023/09/30 12:56:17;;;;;;;9.93;5.45;;;;;;;;;;5158475;27;20023;-71
2023/09/30 12:59:06;;;;;;;12.30;5.80;;;;;;;;;;5157363;27;20049;-70
2023/09/30 13:01:52;;;;;;;11.30;4.97;;;;;;;;;;5158242;27;20030;-72
2023/09/30 13:04:42;;;;;;;11.02;4.78;;;;;;;;;;5157949;27;20014;-70
2023/09/30 13:07:28;;;;;;;11.57;4.93;;;;;;;;;;5175148;27;20499;-71
2023/09/30 13:10:14;;;;;;;10.95;5.53;;;;;;;;;;5179198;27;20031;-72
2023/09/30 13:12:59;;;;;;;10.32;5.10;;;;;;;;;;5178053;27;20030;-71
2023/09/30 13:15:45;;;;;;;9.05;5.75;;;;;;;;;;5163844;27;20097;-72
2023/09/30 13:18:30;;;;;;;7.78;4.95;;;;;;;;;;5178286;27;20018;-71
2023/09/30 13:21:16;;;;;;;7.85;5.03;;;;;;;;;;5157704;27;20105;-71
2023/09/30 13:24:02;;;;;;;9.13;5.03;;;;;;;;;;5166487;27;20022;-71
2023/09/30 13:26:48;;;;;;;11.20;5.72;;;;;;;;;;5157439;27;20026;-72
2023/09/30 13:29:33;;;;;;;10.15;6.50;;;;;;;;;;5157332;27;20029;-71
2023/09/30 13:32:19;;;;;;;25.90;7.20;;;;;;;;;;5157845;27;20102;-71
2023/09/30 13:35:05;;;;;;;13.25;6.25;;;;;;;;;;5157357;27;20019;-71
2023/09/30 13:37:51;;;;;;;19.88;6.55;;;;;;;;;;5142226;27;20505;-71
2023/09/30 13:40:37;;;;;;;10.30;6.88;;;;;;;;;;5156513;27;20030;-71
2023/09/30 13:43:22;;;;;;;10.77;6.70;;;;;;;;;;5142447;27;20472;-72
2023/09/30 13:46:08;;;;;;;10.65;6.50;;;;;;;;;;5156690;27;20065;-72
2023/09/30 13:48:53;;;;;;;12.77;6.40;;;;;;;;;;5156063;27;20134;-73
2023/09/30 13:51:39;;;;;;;12.40;6.15;;;;;;;;;;5157257;27;20030;-71
2023/09/30 13:54:25;;;;;;;11.07;6.60;;;;;;;;;;5141913;27;20085;-72
2023/09/30 13:57:10;;;;;;;11.50;6.30;;;;;;;;;;5157001;27;20007;-72
2023/09/30 13:59:56;;;;;;;9.38;5.85;;;;;;;;;;5174349;27;20057;-71
2023/09/30 14:02:42;;;;;;;11.23;6.35;;;;;;;;;;5176467;27;20054;-73
2023/09/30 14:05:28;;;;;;;14.52;6.32;;;;;;;;;;5176720;27;20094;-72
2023/09/30 14:08:14;;;;;;;12.75;6.03;;;;;;;;;;5177283;27;20014;-72
2023/09/30 14:10:59;;;;;;;7.95;5.63;;;;;;;;;;5176596;27;20023;-73
2023/09/30 14:13:45;;;;;;;9.75;6.32;;;;;;;;;;5176751;27;20011;-70
2023/09/30 14:16:30;;;;;;;12.38;7.35;;;;;;;;;;5177228;27;20018;-72
2023/09/30 14:19:16;;;;;;;10.30;6.32;;;;;;;;;;5176595;27;20158;-72
2023/09/30 14:22:04;;;;;;;12.88;6.22;;;;;;;;;;5176958;27;20026;-71
2023/09/30 14:24:49;;;;;;;19.58;5.88;;;;;;;;;;5176059;27;20040;-71
2023/09/30 14:27:35;;;;;;;14.60;5.75;;;;;;;;;;5176366;27;20030;-71
2023/09/30 14:30:20;;;;;;;7.50;5.22;;;;;;;;;;5177558;27;20030;-71
2023/09/30 14:33:06;;;;;;;9.13;5.32;;;;;;;;;;5177063;27;20025;-71
2023/09/30 14:35:52;;;;;;;9.00;5.70;;;;;;;;;;5176879;27;20022;-72
2023/09/30 14:38:38;;;;;;;15.98;5.70;;;;;;;;;;5176091;27;20037;-72
2023/09/30 14:41:24;;;;;;;12.00;5.28;;;;;;;;;;5176501;27;20079;-71
2023/09/30 14:44:11;;;;;;;10.90;5.60;;;;;;;;;;5177685;27;20066;-72
2023/09/30 14:46:57;;;;;;;10.15;5.50;;;;;;;;;;5176871;27;20105;-72
2023/09/30 14:49:42;;;;;;;9.20;4.82;;;;;;;;;;5176998;27;20042;-73
2023/09/30 14:52:28;;;;;;;15.38;5.47;;;;;;;;;;5175464;27;20030;-72
2023/09/30 14:55:16;;;;;;;11.23;5.60;;;;;;;;;;5180814;27;20030;-71
2023/09/30 14:58:01;;;;;;;10.13;4.90;;;;;;;;;;5179381;27;20018;-70
2023/09/30 15:00:47;;;;;;;7.93;5.05;;;;;;;;;;5170572;27;20028;-70
2023/09/30 15:03:36;;;;;;;9.48;5.40;;;;;;;;;;5166598;27;20336;-73
2023/09/30 15:06:24;;;;;;;13.75;5.53;;;;;;;;;;5180553;27;20092;-72
2023/09/30 15:09:11;;;;;;;12.45;5.75;;;;;;;;;;5175827;27;20026;-72
2023/09/30 15:11:57;;;;;;;10.70;5.80;;;;;;;;;;5175499;27;20033;-72
2023/09/30 15:14:44;;;;;;;13.70;5.32;;;;;;;;;;5176253;27;20014;-72
2023/09/30 15:17:30;;;;;;;9.48;5.28;;;;;;;;;;5176183;27;20022;-71
2023/09/30 15:20:16;;;;;;;10.43;5.43;;;;;;;;;;5175223;27;20446;-72
2023/09/30 15:23:02;;;;;;;7.60;5.22;;;;;;;;;;5161536;27;20037;-71
2023/09/30 15:25:48;;;;;;;10.10;5.18;;;;;;;;;;5175364;27;20366;-72
2023/09/30 15:28:33;;;;;;;7.60;5.38;;;;;;;;;;5177474;27;20432;-72
2023/09/30 15:31:19;;;;;;;10.82;5.85;;;;;;;;;;5176336;27;20025;-72
2023/09/30 15:34:05;;;;;;;14.27;5.88;;;;;;;;;;5163790;27;20415;-71
2023/09/30 15:36:51;;;;;;;12.75;6.57;;;;;;;;;;5174370;27;20166;-72
2023/09/30 15:39:38;;;;;;;10.65;5.75;;;;;;;;;;5161235;27;20109;-71
2023/09/30 15:42:24;;;;;;;10.18;5.90;;;;;;;;;;5175037;27;20022;-71
2023/09/30 15:45:10;;;;;;;12.82;5.97;;;;;;;;;;5176267;27;20341;-74
2023/09/30 15:47:56;;;;;;;12.48;6.07;;;;;;;;;;5177625;27;20404;-72
2023/09/30 15:50:41;;;;;;;13.27;6.15;;;;;;;;;;5175640;27;20412;-72
2023/09/30 15:53:28;;;;;;;14.63;5.97;;;;;;;;;;5160200;27;20022;-72
2023/09/30 15:56:14;;;;;;;14.73;6.30;;;;;;;;;;5175208;27;20033;-73
2023/09/30 15:58:59;;;;;;;13.60;6.65;;;;;;;;;;5176092;27;20400;-73
2023/09/30 16:01:45;;;;;;;17.48;6.57;;;;;;;;;;5161065;27;20033;-71
2023/09/30 16:04:30;;;;;;;15.02;7.50;;;;;;;;;;5178243;27;20014;-73
2023/09/30 16:07:16;;;;;;;18.05;8.00;;;;;;;;;;5164719;27;20022;-72
2023/09/30 16:10:02;;;;;;;16.17;8.57;;;;;;;;;;5158019;27;20440;-74
2023/09/30 16:12:47;;;;;;;18.05;8.70;;;;;;;;;;5158911;27;20083;-74
2023/09/30 16:15:34;;;;;;;22.20;8.98;;;;;;;;;;5157973;27;20051;-73
2023/09/30 16:18:20;;;;;;;17.58;9.15;;;;;;;;;;5158609;27;20356;-72
2023/09/30 16:21:06;;;;;;;21.42;9.32;;;;;;;;;;5158374;27;20109;-73
2023/09/30 16:23:52;;;;;;;21.27;9.10;;;;;;;;;;5159222;27;20026;-73